sensor_id;sensor_type;location;lat;lon;timestamp;pressure;altitude;pressure_sealevel;temperature;humidity
13312;BME280;34033;48.672;9.376;2023-04-01T00:02:16;97228.88;;;9.66;80.92
13312;BME280;34033;48.672;9.376;2023-04-01T00:04:42;97222.97;;;9.60;81.55
13312;BME280;34033;48.672;9.376;2023-04-01T00:07:08;97228.47;;;9.68;81.10
13312;BME280;34033;48.672;9.376;2023-04-01T00:09:33;97221.69;;;9.69;81.35
13312;BME280;34033;48.672;9.376;2023-04-01T00:12:00;97230.75;;;9.76;80.43
13312;BME280;34033;48.672;9.376;2023-04-01T00:14:26;97223.16;;;9.80;80.16
13312;BME280;34033;48.672;9.376;2023-04-01T00:16:51;97221.25;;;9.74;80.26
13312;BME280;34033;48.672;9.376;2023-04-01T00:19:18;97234.41;;;9.73;80.43
13312;BME280;34033;48.672;9.376;2023-04-01T00:21:43;97223.16;;;9.80;80.31
13312;BME280;34033;48.672;9.376;2023-04-01T00:24:08;97221.19;;;9.77;80.36
13312;BME280;34033;48.672;9.376;2023-04-01T00:26:34;97214.47;;;9.71;80.50
13312;BME280;34033;48.672;9.376;2023-04-01T00:28:59;97216.06;;;9.72;80.27
13312;BME280;34033;48.672;9.376;2023-04-01T00:31:25;97221.63;;;9.76;80.12
13312;BME280;34033;48.672;9.376;2023-04-01T00:33:51;97217.94;;;9.82;79.29
13312;BME280;34033;48.672;9.376;2023-04-01T00:36:20;97220.00;;;9.78;77.94
13312;BME280;34033;48.672;9.376;2023-04-01T00:38:46;97218.41;;;9.77;78.33
13312;BME280;34033;48.672;9.376;2023-04-01T00:41:14;97212.03;;;9.77;77.79
13312;BME280;34033;48.672;9.376;2023-04-01T00:43:43;97215.59;;;9.77;77.79
13312;BME280;34033;48.672;9.376;2023-04-01T00:46:09;97231.16;;;9.78;77.79
13312;BME280;34033;48.672;9.376;2023-04-01T00:48:37;97221.59;;;9.79;77.23
13312;BME280;34033;48.672;9.376;2023-04-01T00:51:17;97222.72;;;9.82;76.94
13312;BME280;34033;48.672;9.376;2023-04-01T00:53:47;97226.31;;;9.82;77.11
13312;BME280;34033;48.672;9.376;2023-04-01T00:56:19;97232.75;;;9.79;77.46
13312;BME280;34033;48.672;9.376;2023-04-01T00:58:58;97237.47;;;9.82;77.12
13312;BME280;34033;48.672;9.376;2023-04-01T01:01:26;97233.16;;;9.78;77.16
13312;BME280;34033;48.672;9.376;2023-04-01T01:03:52;97232.81;;;9.72;77.46
13312;BME280;34033;48.672;9.376;2023-04-01T01:06:45;97238.31;;;9.79;77.85
13312;BME280;34033;48.672;9.376;2023-04-01T01:31:37;97236.69;;;9.82;76.96
13312;BME280;34033;48.672;9.376;2023-04-01T01:34:27;97238.78;;;9.74;77.80
13312;BME280;34033;48.672;9.376;2023-04-01T01:36:59;97241.16;;;9.76;78.39
13312;BME280;34033;48.672;9.376;2023-04-01T01:39:30;97227.22;;;9.72;79.03
13312;BME280;34033;48.672;9.376;2023-04-01T01:42:01;97232.78;;;9.76;79.01
13312;BME280;34033;48.672;9.376;2023-04-01T01:44:29;97229.56;;;9.77;78.38
13312;BME280;34033;48.672;9.376;2023-04-01T01:46:56;97227.22;;;9.72;78.95
13312;BME280;34033;48.672;9.376;2023-04-01T01:49:22;97232.00;;;9.75;77.92
13312;BME280;34033;48.672;9.376;2023-04-01T01:51:48;97242.84;;;9.66;78.20
13312;BME280;34033;48.672;9.376;2023-04-01T01:54:15;97234.00;;;9.71;78.62
13312;BME280;34033;48.672;9.376;2023-04-01T01:56:42;97226.38;;;9.79;78.53
13312;BME280;34033;48.672;9.376;2023-04-01T01:59:08;97240.38;;;9.72;78.34
13312;BME280;34033;48.672;9.376;2023-04-01T02:01:39;97234.00;;;9.75;78.10
13312;BME280;34033;48.672;9.376;2023-04-01T02:04:07;97228.81;;;9.73;77.80
13312;BME280;34033;48.672;9.376;2023-04-01T02:06:36;97242.81;;;9.70;78.31
13312;BME280;34033;48.672;9.376;2023-04-01T02:09:05;97240.53;;;9.57;79.21
13312;BME280;34033;48.672;9.376;2023-04-01T02:11:41;97233.31;;;9.60;79.34
13312;BME280;34033;48.672;9.376;2023-04-01T02:14:18;97229.03;;;9.52;79.61
13312;BME280;34033;48.672;9.376;2023-04-01T02:19:15;97240.91;;;9.59;78.52
13312;BME280;34033;48.672;9.376;2023-04-01T02:21:49;97246.56;;;9.49;78.44
13312;BME280;34033;48.672;9.376;2023-04-01T02:24:17;97237.75;;;9.54;78.15
13312;BME280;34033;48.672;9.376;2023-04-01T02:26:44;97231.75;;;9.59;78.50
13312;BME280;34033;48.672;9.376;2023-04-01T02:29:11;97243.59;;;9.70;77.98
13312;BME280;34033;48.672;9.376;2023-04-01T02:31:37;97246.41;;;9.70;77.71
13312;BME280;34033;48.672;9.376;2023-04-01T02:34:03;97238.16;;;9.56;77.74
13312;BME280;34033;48.672;9.376;2023-04-01T02:36:29;97243.31;;;9.57;78.05
13312;BME280;34033;48.672;9.376;2023-04-01T02:38:55;97246.00;;;9.68;77.53
13312;BME280;34033;48.672;9.376;2023-04-01T02:41:24;97248.41;;;9.66;76.79
13312;BME280;34033;48.672;9.376;2023-04-01T02:43:49;97246.41;;;9.67;77.02
13312;BME280;34033;48.672;9.376;2023-04-01T02:46:15;97239.59;;;9.71;76.75
13312;BME280;34033;48.672;9.376;2023-04-01T02:48:40;97242.03;;;9.69;75.64
13312;BME280;34033;48.672;9.376;2023-04-01T02:51:06;97236.84;;;9.68;75.48
13312;BME280;34033;48.672;9.376;2023-04-01T02:53:31;97247.81;;;9.48;76.19
13312;BME280;34033;48.672;9.376;2023-04-01T02:55:57;97237.84;;;9.43;76.02
13312;BME280;34033;48.672;9.376;2023-04-01T02:58:22;97230.63;;;9.49;75.91
13312;BME280;34033;48.672;9.376;2023-04-01T03:00:47;97217.06;;;9.51;76.08
13312;BME280;34033;48.672;9.376;2023-04-01T03:03:13;97226.59;;;9.54;75.27
13312;BME280;34033;48.672;9.376;2023-04-01T03:05:39;97224.66;;;9.51;76.03
13312;BME280;34033;48.672;9.376;2023-04-01T03:08:05;97224.31;;;9.45;76.08
13312;BME280;34033;48.672;9.376;2023-04-01T03:10:31;97226.34;;;9.38;76.43
13312;BME280;34033;48.672;9.376;2023-04-01T03:12:56;97211.72;;;9.27;76.58
13312;BME280;34033;48.672;9.376;2023-04-01T03:15:22;97215.69;;;9.29;76.71
13312;BME280;34033;48.672;9.376;2023-04-01T03:17:47;97223.25;;;9.29;76.85
13312;BME280;34033;48.672;9.376;2023-04-01T03:20:13;97226.53;;;9.20;77.43
13312;BME280;34033;48.672;9.376;2023-04-01T03:22:39;97236.50;;;9.17;77.35
13312;BME280;34033;48.672;9.376;2023-04-01T03:25:05;97224.19;;;9.15;77.39
13312;BME280;34033;48.672;9.376;2023-04-01T03:27:30;97223.03;;;9.05;77.24
13312;BME280;34033;48.672;9.376;2023-04-01T03:29:56;97227.84;;;9.01;77.61
13312;BME280;34033;48.672;9.376;2023-04-01T03:32:21;97230.25;;;8.99;77.92
13312;BME280;34033;48.672;9.376;2023-04-01T03:34:46;97229.44;;;9.02;77.26
13312;BME280;34033;48.672;9.376;2023-04-01T03:37:12;97237.38;;;9.07;77.62
13312;BME280;34033;48.672;9.376;2023-04-01T03:39:38;97240.56;;;9.09;77.01
13312;BME280;34033;48.672;9.376;2023-04-01T03:42:03;97237.41;;;9.04;76.71
13312;BME280;34033;48.672;9.376;2023-04-01T03:44:35;97238.56;;;9.06;76.59
13312;BME280;34033;48.672;9.376;2023-04-01T03:47:01;97244.19;;;9.03;77.08
13312;BME280;34033;48.672;9.376;2023-04-01T03:49:26;97239.00;;;9.01;75.91
13312;BME280;34033;48.672;9.376;2023-04-01T03:51:51;97238.66;;;8.96;76.24
13312;BME280;34033;48.672;9.376;2023-04-01T03:54:17;97246.25;;;8.92;76.77
13312;BME280;34033;48.672;9.376;2023-04-01T03:56:43;97246.63;;;8.90;76.24
13312;BME280;34033;48.672;9.376;2023-04-01T03:59:08;97237.44;;;8.93;76.54
13312;BME280;34033;48.672;9.376;2023-04-01T04:01:34;97240.66;;;8.92;76.63
13312;BME280;34033;48.672;9.376;2023-04-01T04:04:00;97235.16;;;8.77;76.99
13312;BME280;34033;48.672;9.376;2023-04-01T04:06:26;97231.94;;;8.83;77.31
13312;BME280;34033;48.672;9.376;2023-04-01T04:08:52;97235.16;;;8.81;76.61
13312;BME280;34033;48.672;9.376;2023-04-01T04:11:18;97227.13;;;8.90;76.90
13312;BME280;34033;48.672;9.376;2023-04-01T04:13:43;97225.09;;;8.94;76.20
13312;BME280;34033;48.672;9.376;2023-04-01T04:16:09;97216.38;;;8.89;76.68
13312;BME280;34033;48.672;9.376;2023-04-01T04:18:36;97219.25;;;8.82;77.05
13312;BME280;34033;48.672;9.376;2023-04-01T04:21:02;97222.47;;;8.76;77.03
13312;BME280;34033;48.672;9.376;2023-04-01T04:23:28;97214.84;;;8.84;77.16
13312;BME280;34033;48.672;9.376;2023-04-01T04:26:06;97224.81;;;8.78;76.53
13312;BME280;34033;48.672;9.376;2023-04-01T04:28:32;97224.81;;;8.78;77.15
13312;BME280;34033;48.672;9.376;2023-04-01T04:30:58;97227.59;;;8.78;76.81
13312;BME280;34033;48.672;9.376;2023-04-01T04:33:23;97226.38;;;8.83;76.85
13312;BME280;34033;48.672;9.376;2023-04-01T04:35:49;97214.44;;;8.82;76.36
13312;BME280;34033;48.672;9.376;2023-04-01T04:38:15;97218.38;;;8.88;76.80
13312;BME280;34033;48.672;9.376;2023-04-01T04:40:41;97221.63;;;8.79;76.07
13312;BME280;34033;48.672;9.376;2023-04-01T04:43:12;97216.03;;;8.83;76.43
13312;BME280;34033;48.672;9.376;2023-04-01T04:45:38;97213.69;;;8.78;76.24
13312;BME280;34033;48.672;9.376;2023-04-01T04:48:04;97220.00;;;8.86;75.95
13312;BME280;34033;48.672;9.376;2023-04-01T04:50:30;97217.94;;;8.93;75.76
13312;BME280;34033;48.672;9.376;2023-04-01T04:52:56;97215.19;;;8.90;75.76
13312;BME280;34033;48.672;9.376;2023-04-01T04:55:21;97224.34;;;8.90;75.41
13312;BME280;34033;48.672;9.376;2023-04-01T04:57:46;97222.09;;;8.71;76.07
13312;BME280;34033;48.672;9.376;2023-04-01T05:00:12;97208.63;;;8.59;77.07
13312;BME280;34033;48.672;9.376;2023-04-01T05:02:37;97213.06;;;8.53;77.19
13312;BME280;34033;48.672;9.376;2023-04-01T05:05:03;97219.38;;;8.57;77.11
13312;BME280;34033;48.672;9.376;2023-04-01T05:07:29;97215.09;;;8.42;78.73
13312;BME280;34033;48.672;9.376;2023-04-01T05:09:55;97215.00;;;8.56;78.03
13312;BME280;34033;48.672;9.376;2023-04-01T05:12:20;97224.97;;;8.53;78.33
13312;BME280;34033;48.672;9.376;2023-04-01T05:14:45;97222.19;;;8.50;79.17
13312;BME280;34033;48.672;9.376;2023-04-01T05:17:12;97215.38;;;8.61;78.85
13312;BME280;34033;48.672;9.376;2023-04-01T05:19:38;97216.13;;;8.69;78.32
13312;BME280;34033;48.672;9.376;2023-04-01T05:22:05;97208.94;;;8.71;79.11
13312;BME280;34033;48.672;9.376;2023-04-01T05:24:31;97220.03;;;8.78;78.87
13312;BME280;34033;48.672;9.376;2023-04-01T05:26:56;97218.38;;;8.88;78.93
13312;BME280;34033;48.672;9.376;2023-04-01T05:29:23;97204.09;;;8.86;78.30
13312;BME280;34033;48.672;9.376;2023-04-01T05:31:48;97208.78;;;8.96;78.31
13312;BME280;34033;48.672;9.376;2023-04-01T05:34:14;97202.38;;;8.99;78.19
13312;BME280;34033;48.672;9.376;2023-04-01T05:36:39;97202.31;;;9.06;77.08
13312;BME280;34033;48.672;9.376;2023-04-01T05:39:06;97201.56;;;8.99;76.80
13312;BME280;34033;48.672;9.376;2023-04-01T05:41:34;97204.31;;;9.06;76.96
13312;BME280;34033;48.672;9.376;2023-04-01T05:44:00;97204.72;;;9.08;76.15
13312;BME280;34033;48.672;9.376;2023-04-01T05:46:25;97201.84;;;9.18;75.83
13312;BME280;34033;48.672;9.376;2023-04-01T05:48:50;97202.19;;;9.24;75.64
13312;BME280;34033;48.672;9.376;2023-04-01T05:51:16;97206.97;;;9.24;74.91
13312;BME280;34033;48.672;9.376;2023-04-01T05:53:42;97214.94;;;9.25;74.42
13312;BME280;34033;48.672;9.376;2023-04-01T05:56:07;97201.78;;;9.26;74.37
13312;BME280;34033;48.672;9.376;2023-04-01T05:58:35;97196.59;;;9.24;73.92
13312;BME280;34033;48.672;9.376;2023-04-01T06:01:05;97195.78;;;9.27;74.05
13312;BME280;34033;48.672;9.376;2023-04-01T06:03:30;97206.47;;;9.32;73.68
13312;BME280;34033;48.672;9.376;2023-04-01T06:05:56;97193.31;;;9.33;72.47
13312;BME280;34033;48.672;9.376;2023-04-01T06:08:21;97201.28;;;9.34;72.94
13312;BME280;34033;48.672;9.376;2023-04-01T06:14:00;97182.41;;;9.49;72.06
13312;BME280;34033;48.672;9.376;2023-04-01T06:16:25;97190.72;;;9.56;71.21
13312;BME280;34033;48.672;9.376;2023-04-01T06:18:59;97181.75;;;9.75;76.45
13312;BME280;34033;48.672;9.376;2023-04-01T06:30:43;97172.56;;;10.42;69.03
13312;BME280;34033;48.672;9.376;2023-04-01T06:33:22;97176.16;;;10.70;70.81
13312;BME280;34033;48.672;9.376;2023-04-01T06:44:16;97182.00;;;11.06;68.52
13312;BME280;34033;48.672;9.376;2023-04-01T06:47:03;97176.31;;;11.13;67.69
13312;BME280;34033;48.672;9.376;2023-04-01T06:49:44;97174.25;;;11.17;66.93
13312;BME280;34033;48.672;9.376;2023-04-01T06:52:26;97178.13;;;11.23;66.53
13312;BME280;34033;48.672;9.376;2023-04-01T06:55:05;97179.59;;;11.31;66.53
13312;BME280;34033;48.672;9.376;2023-04-01T06:57:46;97176.25;;;11.16;65.73
13312;BME280;34033;48.672;9.376;2023-04-01T07:02:54;97173.72;;;10.99;65.70
13312;BME280;34033;48.672;9.376;2023-04-01T07:05:25;97176.13;;;10.73;66.62
13312;BME280;34033;48.672;9.376;2023-04-01T07:07:57;97174.75;;;10.85;66.66
13312;BME280;34033;48.672;9.376;2023-04-01T07:10:41;97179.31;;;10.99;65.98
13312;BME280;34033;48.672;9.376;2023-04-01T07:13:15;97175.72;;;10.98;66.92
13312;BME280;34033;48.672;9.376;2023-04-01T07:15:54;97172.94;;;10.98;65.83
13312;BME280;34033;48.672;9.376;2023-04-01T07:18:32;97171.56;;;11.10;66.25
13312;BME280;34033;48.672;9.376;2023-04-01T07:21:01;97178.00;;;11.07;65.92
13312;BME280;34033;48.672;9.376;2023-04-01T07:23:39;97168.75;;;11.10;66.24
13312;BME280;34033;48.672;9.376;2023-04-01T07:26:27;97168.03;;;11.06;65.26
13312;BME280;34033;48.672;9.376;2023-04-01T07:28:53;97170.72;;;11.13;65.84
13312;BME280;34033;48.672;9.376;2023-04-01T07:34:31;97179.16;;;11.09;66.00
13312;BME280;34033;48.672;9.376;2023-04-01T07:39:41;97180.19;;;10.96;66.58
13312;BME280;34033;48.672;9.376;2023-04-01T07:47:59;97178.50;;;11.02;65.64
13312;BME280;34033;48.672;9.376;2023-04-01T07:53:26;97181.63;;;11.04;65.52
13312;BME280;34033;48.672;9.376;2023-04-01T07:56:15;97185.31;;;11.24;66.79
13312;BME280;34033;48.672;9.376;2023-04-01T08:07:22;97181.06;;;11.39;65.06
13312;BME280;34033;48.672;9.376;2023-04-01T08:09:55;97180.44;;;11.28;65.03
13312;BME280;34033;48.672;9.376;2023-04-01T08:12:48;97175.34;;;11.23;65.17
13312;BME280;34033;48.672;9.376;2023-04-01T08:15:35;97193.41;;;11.18;65.90
13312;BME280;34033;48.672;9.376;2023-04-01T08:23:27;97192.31;;;11.36;65.14
13312;BME280;34033;48.672;9.376;2023-04-01T08:26:27;97194.84;;;11.26;65.29
13312;BME280;34033;48.672;9.376;2023-04-01T08:29:09;97189.75;;;11.21;65.57
13312;BME280;34033;48.672;9.376;2023-04-01T08:32:03;97183.97;;;11.32;66.18
13312;BME280;34033;48.672;9.376;2023-04-01T08:34:35;97195.94;;;11.33;66.53
13312;BME280;34033;48.672;9.376;2023-04-01T08:37:14;97202.81;;;11.28;66.59
13312;BME280;34033;48.672;9.376;2023-04-01T08:39:58;97197.13;;;11.35;65.90
13312;BME280;34033;48.672;9.376;2023-04-01T08:42:35;97209.88;;;11.36;65.94
13312;BME280;34033;48.672;9.376;2023-04-01T08:48:22;97182.75;;;11.33;66.24
13312;BME280;34033;48.672;9.376;2023-04-01T09:04:39;97202.56;;;10.96;70.26
13312;BME280;34033;48.672;9.376;2023-04-01T09:10:40;97195.13;;;10.85;72.07
13312;BME280;34033;48.672;9.376;2023-04-01T09:13:27;97217.66;;;10.71;73.88
13312;BME280;34033;48.672;9.376;2023-04-01T09:15:50;97200.66;;;10.62;74.49
13312;BME280;34033;48.672;9.376;2023-04-01T09:19:10;97207.69;;;11.24;77.00
13312;BME280;34033;48.672;9.376;2023-04-01T09:21:41;97200.38;;;11.53;69.96
13312;BME280;34033;48.672;9.376;2023-04-01T09:43:27;97212.75;;;11.33;69.39
13312;BME280;34033;48.672;9.376;2023-04-01T09:46:07;97221.44;;;11.38;70.13
13312;BME280;34033;48.672;9.376;2023-04-01T09:51:45;97227.47;;;11.10;70.94
13312;BME280;34033;48.672;9.376;2023-04-01T09:54:32;97222.03;;;11.26;72.05
13312;BME280;34033;48.672;9.376;2023-04-01T10:00:15;97241.38;;;11.17;72.31
13312;BME280;34033;48.672;9.376;2023-04-01T10:33:37;97246.84;;;11.74;72.71
13312;BME280;34033;48.672;9.376;2023-04-01T10:53:19;97241.88;;;11.08;73.80
13312;BME280;34033;48.672;9.376;2023-04-01T11:03:55;;;;12.22;
13312;BME280;34033;48.672;9.376;2023-04-01T11:06:57;97237.22;;;12.18;68.30
13312;BME280;34033;48.672;9.376;2023-04-01T11:09:42;97243.53;;;12.22;68.57
13312;BME280;34033;48.672;9.376;2023-04-01T11:24:16;97246.06;;;11.74;68.04
13312;BME280;34033;48.672;9.376;2023-04-01T11:37:44;97243.88;;;12.64;65.16
13312;BME280;34033;48.672;9.376;2023-04-01T11:40:44;97243.72;;;12.71;65.10
13312;BME280;34033;48.672;9.376;2023-04-01T11:46:11;97247.25;;;12.75;65.54
13312;BME280;34033;48.672;9.376;2023-04-01T11:48:44;97247.41;;;12.68;65.06
13312;BME280;34033;48.672;9.376;2023-04-01T11:55:25;97255.53;;;12.62;65.57
13312;BME280;34033;48.672;9.376;2023-04-01T12:05:46;97269.34;;;12.73;63.91
13312;BME280;34033;48.672;9.376;2023-04-01T12:11:15;97271.56;;;12.62;64.13
13312;BME280;34033;48.672;9.376;2023-04-01T12:14:11;97280.50;;;12.57;62.77
13312;BME280;34033;48.672;9.376;2023-04-01T12:16:55;97277.16;;;12.42;63.31
13312;BME280;34033;48.672;9.376;2023-04-01T12:30:22;97278.97;;;11.89;64.78
13312;BME280;34033;48.672;9.376;2023-04-01T12:38:24;97286.94;;;11.91;65.13
13312;BME280;34033;48.672;9.376;2023-04-01T12:41:09;97292.00;;;12.19;65.04
13312;BME280;34033;48.672;9.376;2023-04-01T12:52:05;97285.56;;;12.42;64.74
13312;BME280;34033;48.672;9.376;2023-04-01T12:54:48;97286.50;;;12.35;64.75
13312;BME280;34033;48.672;9.376;2023-04-01T13:05:33;97301.97;;;12.43;64.25
13312;BME280;34033;48.672;9.376;2023-04-01T13:08:05;97296.84;;;12.58;63.88
13312;BME280;34033;48.672;9.376;2023-04-01T13:34:39;97316.78;;;12.44;59.43
13312;BME280;34033;48.672;9.376;2023-04-01T13:44:06;97320.44;;;12.61;60.13
13312;BME280;34033;48.672;9.376;2023-04-01T13:49:08;97311.97;;;12.84;60.02
13312;BME280;34033;48.672;9.376;2023-04-01T13:59:59;97329.63;;;12.81;61.07
13312;BME280;34033;48.672;9.376;2023-04-01T14:12:58;97332.44;;;13.01;58.42
13312;BME280;34033;48.672;9.376;2023-04-01T14:35:14;97332.22;;;13.11;59.22
13312;BME280;34033;48.672;9.376;2023-04-01T14:49:36;97341.91;;;12.28;60.47
13312;BME280;34033;48.672;9.376;2023-04-01T14:54:43;97351.00;;;12.12;62.12
13312;BME280;34033;48.672;9.376;2023-04-01T14:57:30;97345.31;;;12.16;62.28
13312;BME280;34033;48.672;9.376;2023-04-01T15:00:17;97340.47;;;12.39;61.58
13312;BME280;34033;48.672;9.376;2023-04-01T15:08:22;97354.09;;;12.61;60.14
13312;BME280;34033;48.672;9.376;2023-04-01T15:13:38;97353.50;;;12.49;60.23
13312;BME280;34033;48.672;9.376;2023-04-01T15:16:34;97348.91;;;12.39;60.65
13312;BME280;34033;48.672;9.376;2023-04-01T15:19:22;97351.19;;;12.44;60.45
13312;BME280;34033;48.672;9.376;2023-04-01T15:25:41;97352.13;;;11.91;61.71
13312;BME280;34033;48.672;9.376;2023-04-01T15:38:16;97376.72;;;12.03;62.24
13312;BME280;34033;48.672;9.376;2023-04-01T15:46:09;97374.81;;;12.24;62.20
13312;BME280;34033;48.672;9.376;2023-04-01T15:51:58;97382.22;;;12.10;63.20
13312;BME280;34033;48.672;9.376;2023-04-01T15:54:56;97381.66;;;12.19;63.61
13312;BME280;34033;48.672;9.376;2023-04-01T16:03:06;97388.84;;;11.97;64.73
13312;BME280;34033;48.672;9.376;2023-04-01T16:05:29;97386.03;;;11.97;64.93
13312;BME280;34033;48.672;9.376;2023-04-01T16:08:18;97388.84;;;11.97;65.06
13312;BME280;34033;48.672;9.376;2023-04-01T16:16:31;97402.69;;;11.54;66.73
13312;BME280;34033;48.672;9.376;2023-04-01T16:19:17;97416.00;;;11.46;67.19
13312;BME280;34033;48.672;9.376;2023-04-01T16:21:56;97415.16;;;11.49;68.15
13312;BME280;34033;48.672;9.376;2023-04-01T16:24:24;97395.06;;;11.54;68.36
13312;BME280;34033;48.672;9.376;2023-04-01T16:27:05;97404.38;;;11.48;68.62
13312;BME280;34033;48.672;9.376;2023-04-01T16:32:29;97402.97;;;11.63;67.92
13312;BME280;34033;48.672;9.376;2023-04-01T16:35:04;97401.06;;;11.56;68.89
13312;BME280;34033;48.672;9.376;2023-04-01T16:37:55;97398.41;;;11.46;68.75
13312;BME280;34033;48.672;9.376;2023-04-01T16:43:25;97408.03;;;11.41;68.91
13312;BME280;34033;48.672;9.376;2023-04-01T16:46:21;97404.03;;;11.42;68.36
13312;BME280;34033;48.672;9.376;2023-04-01T16:49:04;97399.56;;;11.48;67.65
13312;BME280;34033;48.672;9.376;2023-04-01T16:51:47;97407.88;;;11.55;68.05
13312;BME280;34033;48.672;9.376;2023-04-01T16:54:29;97407.31;;;11.64;67.60
13312;BME280;34033;48.672;9.376;2023-04-01T16:57:17;97409.28;;;11.67;66.61
13312;BME280;34033;48.672;9.376;2023-04-01T17:02:39;97413.09;;;11.53;67.32
13312;BME280;34033;48.672;9.376;2023-04-01T17:05:11;97414.59;;;11.58;67.05
13312;BME280;34033;48.672;9.376;2023-04-01T17:13:18;97417.94;;;11.49;66.17
13312;BME280;34033;48.672;9.376;2023-04-01T17:15:53;97422.25;;;11.57;65.75
13312;BME280;34033;48.672;9.376;2023-04-01T17:24:14;97418.31;;;11.51;65.48
13312;BME280;34033;48.672;9.376;2023-04-01T17:30:11;97427.03;;;11.57;65.32
13312;BME280;34033;48.672;9.376;2023-04-01T17:35:41;97431.06;;;11.56;65.65
13312;BME280;34033;48.672;9.376;2023-04-01T17:41:16;97440.88;;;11.41;65.64
13312;BME280;34033;48.672;9.376;2023-04-01T17:46:54;97439.44;;;11.56;65.52
13312;BME280;34033;48.672;9.376;2023-04-01T17:52:39;97452.81;;;11.41;65.94
13312;BME280;34033;48.672;9.376;2023-04-01T18:06:17;97458.19;;;11.28;66.93
13312;BME280;34033;48.672;9.376;2023-04-01T18:09:00;97462.47;;;11.37;66.90
13312;BME280;34033;48.672;9.376;2023-04-01T18:14:29;97465.53;;;11.49;66.49
13312;BME280;34033;48.672;9.376;2023-04-01T18:17:25;97474.75;;;11.46;66.80
13312;BME280;34033;48.672;9.376;2023-04-01T18:23:11;97480.63;;;11.55;66.74
13312;BME280;34033;48.672;9.376;2023-04-01T18:25:40;97481.44;;;11.56;66.63
13312;BME280;34033;48.672;9.376;2023-04-01T18:31:24;97508.69;;;11.48;66.25
13312;BME280;34033;48.672;9.376;2023-04-01T18:47:44;97561.50;;;11.12;70.65
13312;BME280;34033;48.672;9.376;2023-04-01T18:50:28;97561.63;;;10.98;73.33
13312;BME280;34033;48.672;9.376;2023-04-01T18:55:54;97556.72;;;10.68;76.86
13312;BME280;34033;48.672;9.376;2023-04-01T19:04:30;97556.81;;;10.58;78.12
13312;BME280;34033;48.672;9.376;2023-04-01T19:14:28;97555.78;;;10.34;77.23
13312;BME280;34033;48.672;9.376;2023-04-01T19:17:13;97559.50;;;10.17;76.03
13312;BME280;34033;48.672;9.376;2023-04-01T19:28:23;97567.34;;;10.32;76.11
13312;BME280;34033;48.672;9.376;2023-04-01T19:38:30;97579.38;;;10.26;76.39
13312;BME280;34033;48.672;9.376;2023-04-01T20:00:50;97585.25;;;10.42;75.70
13312;BME280;34033;48.672;9.376;2023-04-01T20:06:07;97581.59;;;10.52;76.22
13312;BME280;34033;48.672;9.376;2023-04-01T20:11:58;97583.91;;;10.61;76.08
13312;BME280;34033;48.672;9.376;2023-04-01T20:14:51;97605.88;;;10.59;75.89
13312;BME280;34033;48.672;9.376;2023-04-01T20:17:18;97610.31;;;10.56;75.92
13312;BME280;34033;48.672;9.376;2023-04-01T20:19:54;97614.25;;;10.59;75.44
13312;BME280;34033;48.672;9.376;2023-04-01T20:25:16;97625.09;;;10.53;75.90
13312;BME280;34033;48.672;9.376;2023-04-01T20:27:47;97625.47;;;10.55;76.22
13312;BME280;34033;48.672;9.376;2023-04-01T20:37:56;97622.28;;;10.53;77.05
13312;BME280;34033;48.672;9.376;2023-04-01T20:40:35;97622.69;;;10.55;77.20
13312;BME280;34033;48.672;9.376;2023-04-01T20:51:24;97618.50;;;11.97;78.94
13312;BME280;34033;48.672;9.376;2023-04-01T21:07:55;97638.50;;;10.79;76.78
13312;BME280;34033;48.672;9.376;2023-04-01T21:10:43;97633.38;;;10.67;77.26
13312;BME280;34033;48.672;9.376;2023-04-01T21:23:47;97646.66;;;10.53;77.73
13312;BME280;34033;48.672;9.376;2023-04-01T21:29:29;97656.81;;;10.25;78.13
13312;BME280;34033;48.672;9.376;2023-04-01T21:35:00;97656.75;;;10.32;78.67
13312;BME280;34033;48.672;9.376;2023-04-01T21:48:53;97670.34;;;10.30;77.09
13312;BME280;34033;48.672;9.376;2023-04-01T22:13:35;97689.63;;;9.96;79.84
13312;BME280;34033;48.672;9.376;2023-04-01T22:18:50;97695.97;;;10.00;78.84
13312;BME280;34033;48.672;9.376;2023-04-01T22:21:38;97705.19;;;9.97;79.28
13312;BME280;34033;48.672;9.376;2023-04-01T22:24:19;97696.81;;;9.87;79.50
13312;BME280;34033;48.672;9.376;2023-04-01T22:29:23;97702.44;;;9.76;80.18
13312;BME280;34033;48.672;9.376;2023-04-01T22:32:15;97704.03;;;9.81;79.85
13312;BME280;34033;48.672;9.376;2023-04-01T22:37:33;97708.00;;;9.80;79.96
13312;BME280;34033;48.672;9.376;2023-04-01T22:43:08;97718.38;;;9.79;79.91
13312;BME280;34033;48.672;9.376;2023-04-01T22:48:41;97716.78;;;9.78;79.91
13312;BME280;34033;48.672;9.376;2023-04-01T22:51:38;97709.63;;;9.81;79.70
13312;BME280;34033;48.672;9.376;2023-04-01T22:56:47;97727.56;;;9.80;79.12
13312;BME280;34033;48.672;9.376;2023-04-01T23:01:48;97721.56;;;9.71;78.94
13312;BME280;34033;48.672;9.376;2023-04-01T23:04:18;97732.34;;;9.72;78.98
13312;BME280;34033;48.672;9.376;2023-04-01T23:06:51;97725.97;;;9.75;77.62
13312;BME280;34033;48.672;9.376;2023-04-01T23:09:23;97728.78;;;9.61;77.96
13312;BME280;34033;48.672;9.376;2023-04-01T23:11:59;97733.16;;;9.69;77.87
13312;BME280;34033;48.672;9.376;2023-04-01T23:14:33;97731.97;;;9.67;77.83
13312;BME280;34033;48.672;9.376;2023-04-01T23:24:50;97741.91;;;9.78;77.10
13312;BME280;34033;48.672;9.376;2023-04-01T23:27:28;97743.53;;;9.76;77.05
13312;BME280;34033;48.672;9.376;2023-04-01T23:29:56;97747.09;;;9.76;76.19
13312;BME280;34033;48.672;9.376;2023-04-01T23:32:25;97748.72;;;9.70;76.17
13312;BME280;34033;48.672;9.376;2023-04-01T23:34:54;97752.66;;;9.76;76.80
13312;BME280;34033;48.672;9.376;2023-04-01T23:37:20;97756.28;;;9.73;76.27
13312;BME280;34033;48.672;9.376;2023-04-01T23:39:50;97763.88;;;9.69;75.93
13312;BME280;34033;48.672;9.376;2023-04-01T23:42:22;97766.63;;;9.76;76.35
13312;BME280;34033;48.672;9.376;2023-04-01T23:44:51;97772.19;;;9.76;76.49
13312;BME280;34033;48.672;9.376;2023-04-01T23:47:20;97768.22;;;9.84;75.67
13312;BME280;34033;48.672;9.376;2023-04-01T23:50:18;97769.41;;;9.76;75.27
13312;BME280;34033;48.672;9.376;2023-04-01T23:52:46;97766.22;;;9.71;75.74
13312;BME280;34033;48.672;9.376;2023-04-01T23:55:19;97768.22;;;9.77;75.87
